createdAt,value
2017-06-22T00:00:07.159Z,1012.56
2017-06-22T00:00:48.041Z,1012.55
2017-06-22T00:01:28.933Z,1012.58
2017-06-22T00:02:09.824Z,1012.54
2017-06-22T00:02:50.725Z,1012.56
2017-06-22T00:03:31.604Z,1012.6
2017-06-22T00:04:12.497Z,1012.63
2017-06-22T00:04:53.392Z,1012.61
2017-06-22T00:05:34.279Z,1012.58
2017-06-22T00:06:15.163Z,1012.61
2017-06-22T00:06:56.070Z,1012.62
2017-06-22T00:07:36.966Z,1012.65
2017-06-22T00:08:17.859Z,1012.64
2017-06-22T00:08:58.752Z,1012.63
2017-06-22T00:09:39.636Z,1012.62
2017-06-22T00:10:20.519Z,1012.62
2017-06-22T00:11:01.426Z,1012.6
2017-06-22T00:11:42.312Z,1012.56
2017-06-22T00:12:23.200Z,1012.55
2017-06-22T00:13:04.100Z,1012.54
2017-06-22T00:15:18.982Z,1012.53
2017-06-22T00:15:59.882Z,1012.52
2017-06-22T00:16:40.781Z,1012.55
2017-06-22T00:17:21.678Z,1012.59
2017-06-22T00:18:02.573Z,1012.57
2017-06-22T00:18:43.465Z,1012.6
2017-06-22T00:19:24.365Z,1012.58
2017-06-22T00:20:05.263Z,1012.53
2017-06-22T00:20:46.128Z,1012.52
2017-06-22T00:21:27.006Z,1012.52
2017-06-22T00:22:07.966Z,1012.51
2017-06-22T00:22:48.873Z,1012.54
2017-06-22T00:23:29.742Z,1012.5
2017-06-22T00:24:10.638Z,1012.55
2017-06-22T00:24:51.538Z,1012.52
2017-06-22T00:25:32.436Z,1012.53
2017-06-22T00:26:13.320Z,1012.52
2017-06-22T00:26:54.190Z,1012.49
2017-06-22T00:27:35.095Z,1012.5
2017-06-22T00:28:15.998Z,1012.48
2017-06-22T00:28:56.876Z,1012.48
2017-06-22T00:29:37.774Z,1012.48
2017-06-22T00:30:18.657Z,1012.41
2017-06-22T00:30:59.546Z,1012.4
2017-06-22T00:31:40.440Z,1012.44
2017-06-22T00:32:21.347Z,1012.45
2017-06-22T00:33:02.231Z,1012.45
2017-06-22T00:33:43.121Z,1012.49
2017-06-22T00:34:24.009Z,1012.46
2017-06-22T00:35:04.916Z,1012.47
2017-06-22T00:35:45.812Z,1012.49
2017-06-22T00:36:26.687Z,1012.49
2017-06-22T00:37:07.578Z,1012.47
2017-06-22T00:37:48.473Z,1012.47
2017-06-22T00:38:29.371Z,1012.48
2017-06-22T00:39:10.300Z,1012.43
2017-06-22T00:39:51.177Z,1012.45
2017-06-22T00:40:32.058Z,1012.45
2017-06-22T00:41:12.966Z,1012.49
2017-06-22T00:41:53.860Z,1012.46
2017-06-22T00:42:34.750Z,1012.4
2017-06-22T00:43:15.640Z,1012.41
2017-06-22T00:43:56.565Z,1012.39
2017-06-22T00:44:37.505Z,1012.42
2017-06-22T00:45:18.393Z,1012.35
2017-06-22T00:45:59.293Z,1012.35
2017-06-22T00:46:40.181Z,1012.33
2017-06-22T00:47:21.070Z,1012.33
2017-06-22T00:48:01.965Z,1012.3
2017-06-22T00:50:15.716Z,1012.39
2017-06-22T00:50:56.600Z,1012.4
2017-06-22T00:51:37.490Z,1012.35
2017-06-22T00:52:18.384Z,1012.3
2017-06-22T00:52:59.277Z,1012.34
2017-06-22T00:55:15.913Z,1012.36
2017-06-22T00:55:56.808Z,1012.34
2017-06-22T00:56:37.735Z,1012.33
2017-06-22T00:57:21.347Z,1012.34
2017-06-22T00:58:02.266Z,1012.33
2017-06-22T00:58:43.139Z,1012.3
2017-06-22T00:59:24.023Z,1012.3
2017-06-22T01:00:04.942Z,1012.3
2017-06-22T01:00:45.806Z,1012.28
2017-06-22T01:01:26.694Z,1012.26
2017-06-22T01:02:09.342Z,1012.23
2017-06-22T01:04:05.941Z,1012.22
2017-06-22T01:04:46.838Z,1012.17
2017-06-22T01:05:27.745Z,1012.2
2017-06-22T01:06:08.609Z,1012.18
2017-06-22T01:06:49.506Z,1012.22
2017-06-22T01:07:30.400Z,1012.24
2017-06-22T01:08:11.285Z,1012.2
2017-06-22T01:08:52.158Z,1012.22
2017-06-22T01:09:33.072Z,1012.22
2017-06-22T01:10:13.931Z,1012.23
2017-06-22T01:10:54.818Z,1012.18
2017-06-22T01:11:35.714Z,1012.16
2017-06-22T01:12:16.621Z,1012.17
2017-06-22T01:12:57.529Z,1012.16
2017-06-22T01:13:38.438Z,1012.15
2017-06-22T01:14:19.288Z,1012.16
2017-06-22T01:15:00.170Z,1012.17
2017-06-22T01:15:41.063Z,1012.19
2017-06-22T01:16:21.954Z,1012.13
2017-06-22T01:17:02.835Z,1012.13
2017-06-22T01:17:43.744Z,1012.12
2017-06-22T01:18:24.638Z,1012.07
2017-06-22T01:19:05.532Z,1012.05
2017-06-22T01:21:19.297Z,1012.03
2017-06-22T01:22:00.235Z,1012.03
2017-06-22T01:22:41.248Z,1012.02
2017-06-22T01:23:22.134Z,1012.04
2017-06-22T01:24:03.032Z,1012.01
2017-06-22T01:24:44.028Z,1011.99
2017-06-22T01:25:24.900Z,1012.02
2017-06-22T01:26:05.784Z,1011.99
2017-06-22T01:26:46.676Z,1011.95
2017-06-22T01:27:27.593Z,1011.91
2017-06-22T01:28:08.513Z,1011.91
2017-06-22T01:28:49.414Z,1011.87
2017-06-22T01:29:30.317Z,1011.86
2017-06-22T01:30:11.188Z,1011.85
2017-06-22T01:30:52.104Z,1011.87
2017-06-22T01:31:35.657Z,1011.88
2017-06-22T01:32:16.626Z,1011.89
2017-06-22T01:32:57.517Z,1011.92
2017-06-22T01:36:27.073Z,1011.98
2017-06-22T01:39:08.594Z,1012.01
2017-06-22T01:39:49.476Z,1011.98
2017-06-22T01:40:30.372Z,1011.98
2017-06-22T01:41:11.257Z,1011.98
2017-06-22T01:41:52.144Z,1012
2017-06-22T01:42:33.073Z,1011.98
2017-06-22T01:43:13.952Z,1012
2017-06-22T01:43:54.849Z,1011.99
2017-06-22T01:44:35.748Z,1011.97
2017-06-22T01:45:16.641Z,1011.98
2017-06-22T01:45:57.507Z,1012.01
2017-06-22T01:46:38.399Z,1012.01
2017-06-22T01:47:19.314Z,1012.04
2017-06-22T01:48:00.204Z,1012.02
2017-06-22T01:48:41.104Z,1012.04
2017-06-22T01:49:22.028Z,1012.04
2017-06-22T01:50:02.923Z,1012.06
2017-06-22T01:50:43.805Z,1012.07
2017-06-22T01:51:24.705Z,1012.07
2017-06-22T01:52:07.366Z,1012.12
2017-06-22T01:52:48.281Z,1012.07
2017-06-22T01:53:29.162Z,1012.1
2017-06-22T01:54:10.041Z,1012.12
2017-06-22T01:54:50.923Z,1012.06
2017-06-22T01:55:31.832Z,1012.07
2017-06-22T01:56:12.709Z,1012.1
2017-06-22T01:56:53.586Z,1012.04
2017-06-22T01:57:34.488Z,1012.08
2017-06-22T01:58:15.407Z,1012.06
2017-06-22T01:58:56.302Z,1012.02
2017-06-22T01:59:37.190Z,1012.04
2017-06-22T02:00:18.095Z,1012
2017-06-22T02:00:58.985Z,1012
2017-06-22T02:01:39.884Z,1012.01
2017-06-22T02:02:20.770Z,1012.01
2017-06-22T02:03:01.660Z,1012.03
2017-06-22T02:03:42.547Z,1012.01
2017-06-22T02:04:23.434Z,1012.01
2017-06-22T02:05:04.332Z,1012.03
2017-06-22T02:05:45.222Z,1011.99
2017-06-22T02:06:26.122Z,1011.97
2017-06-22T02:07:07.022Z,1011.98
2017-06-22T02:07:47.897Z,1011.96
2017-06-22T02:08:28.777Z,1011.96
2017-06-22T02:09:09.697Z,1011.96
2017-06-22T02:09:50.635Z,1011.94
2017-06-22T02:10:31.516Z,1011.94
2017-06-22T02:11:12.400Z,1011.95
2017-06-22T02:11:53.268Z,1011.98
2017-06-22T02:12:34.155Z,1011.9
2017-06-22T02:13:15.054Z,1011.92
2017-06-22T02:13:55.947Z,1011.95
2017-06-22T02:14:36.838Z,1011.94
2017-06-22T02:15:17.733Z,1011.93
2017-06-22T02:17:11.323Z,1011.91
2017-06-22T02:17:52.200Z,1011.92
2017-06-22T02:18:33.093Z,1011.95
2017-06-22T02:19:13.987Z,1011.91
2017-06-22T02:19:54.862Z,1011.96
2017-06-22T02:20:35.729Z,1011.92
2017-06-22T02:21:16.671Z,1011.95
2017-06-22T02:21:57.541Z,1011.93
2017-06-22T02:22:38.437Z,1011.92
2017-06-22T02:23:19.355Z,1011.92
2017-06-22T02:24:00.218Z,1011.87
2017-06-22T02:24:41.099Z,1011.83
2017-06-22T02:25:22.006Z,1011.84
2017-06-22T02:26:02.882Z,1011.82
2017-06-22T02:26:43.784Z,1011.8
2017-06-22T02:27:24.679Z,1011.78
2017-06-22T02:28:05.551Z,1011.78
2017-06-22T02:28:46.434Z,1011.81
2017-06-22T02:29:27.327Z,1011.79
2017-06-22T02:30:08.225Z,1011.79
2017-06-22T02:30:49.108Z,1011.78
2017-06-22T02:31:29.998Z,1011.74
2017-06-22T02:32:10.892Z,1011.74
2017-06-22T02:32:51.766Z,1011.7
2017-06-22T02:33:32.696Z,1011.72
2017-06-22T02:34:13.612Z,1011.73
2017-06-22T02:34:54.511Z,1011.7
2017-06-22T02:35:35.386Z,1011.73
2017-06-22T02:36:16.265Z,1011.7
2017-06-22T02:36:57.162Z,1011.72
2017-06-22T02:37:38.120Z,1011.74
2017-06-22T02:38:19.073Z,1011.7
2017-06-22T02:38:59.961Z,1011.71
2017-06-22T02:41:20.498Z,1011.75
2017-06-22T02:42:01.398Z,1011.78
2017-06-22T02:42:42.287Z,1011.78
2017-06-22T02:43:23.260Z,1011.78
2017-06-22T02:44:04.147Z,1011.8
2017-06-22T02:47:20.354Z,1011.8
2017-06-22T02:48:01.232Z,1011.83
2017-06-22T02:48:42.248Z,1011.84
2017-06-22T02:49:23.160Z,1011.84
2017-06-22T02:50:04.095Z,1011.86
2017-06-22T02:50:44.980Z,1011.84
2017-06-22T02:51:25.876Z,1011.85
2017-06-22T02:52:06.783Z,1011.85
2017-06-22T02:52:47.650Z,1011.84
2017-06-22T02:53:28.574Z,1011.84
2017-06-22T02:54:09.434Z,1011.82
2017-06-22T02:54:50.339Z,1011.85
2017-06-22T02:55:31.221Z,1011.84
2017-06-22T02:56:12.103Z,1011.83
2017-06-22T02:56:53.015Z,1011.81
2017-06-22T02:57:33.898Z,1011.79
2017-06-22T02:58:14.792Z,1011.81
2017-06-22T02:58:55.783Z,1011.79
2017-06-22T03:01:09.594Z,1011.78
2017-06-22T03:01:50.500Z,1011.8
2017-06-22T03:02:31.387Z,1011.79
2017-06-22T03:03:12.285Z,1011.79
2017-06-22T03:03:53.178Z,1011.78
2017-06-22T03:04:34.060Z,1011.75
2017-06-22T03:05:14.968Z,1011.77
2017-06-22T03:05:55.859Z,1011.84
2017-06-22T03:06:36.746Z,1011.81
2017-06-22T03:07:17.642Z,1011.83
2017-06-22T03:07:58.526Z,1011.82
2017-06-22T03:10:13.262Z,1011.8
2017-06-22T03:10:54.173Z,1011.8
2017-06-22T03:11:35.075Z,1011.79
2017-06-22T03:12:15.951Z,1011.8
2017-06-22T03:12:56.840Z,1011.77
2017-06-22T03:13:37.732Z,1011.77
2017-06-22T03:14:18.626Z,1011.75
2017-06-22T03:14:59.525Z,1011.77
2017-06-22T03:15:40.411Z,1011.76
2017-06-22T03:19:12.928Z,1011.76
2017-06-22T03:19:53.795Z,1011.73
2017-06-22T03:20:35.613Z,1011.76
2017-06-22T03:21:18.272Z,1011.79
2017-06-22T03:21:59.159Z,1011.73
2017-06-22T03:22:40.043Z,1011.75
2017-06-22T03:25:15.528Z,1011.67
2017-06-22T03:29:11.978Z,1011.61
2017-06-22T03:29:52.859Z,1011.65
2017-06-22T03:30:33.745Z,1011.62
2017-06-22T03:31:14.724Z,1011.65
2017-06-22T03:31:55.632Z,1011.67
2017-06-22T03:32:36.514Z,1011.63
2017-06-22T03:33:17.439Z,1011.64
2017-06-22T03:33:58.348Z,1011.66
2017-06-22T03:36:12.145Z,1011.63
2017-06-22T03:36:53.092Z,1011.63
2017-06-22T03:37:34.004Z,1011.63
2017-06-22T03:38:14.913Z,1011.61
2017-06-22T03:38:55.800Z,1011.64
2017-06-22T03:41:10.566Z,1011.65
2017-06-22T03:41:51.450Z,1011.64
2017-06-22T03:42:32.335Z,1011.63
2017-06-22T03:43:13.238Z,1011.64
2017-06-22T03:43:54.147Z,1011.65
2017-06-22T03:44:35.074Z,1011.65
2017-06-22T03:45:15.982Z,1011.66
2017-06-22T03:45:56.880Z,1011.64
2017-06-22T03:46:37.754Z,1011.67
2017-06-22T03:47:18.639Z,1011.64
2017-06-22T03:47:59.520Z,1011.65
2017-06-22T03:48:40.409Z,1011.61
2017-06-22T03:49:21.311Z,1011.6
2017-06-22T03:50:02.226Z,1011.62
2017-06-22T03:50:43.150Z,1011.63
2017-06-22T03:51:24.016Z,1011.64
2017-06-22T03:52:04.901Z,1011.63
2017-06-22T03:52:45.815Z,1011.66
2017-06-22T03:53:26.706Z,1011.64
2017-06-22T03:55:21.423Z,1011.66
2017-06-22T03:56:02.316Z,1011.64
2017-06-22T03:56:43.235Z,1011.61
2017-06-22T03:57:24.116Z,1011.62
2017-06-22T03:58:05.037Z,1011.6
2017-06-22T03:58:45.963Z,1011.59
2017-06-22T03:59:26.917Z,1011.6
2017-06-22T04:00:07.836Z,1011.56
2017-06-22T04:00:48.765Z,1011.58
2017-06-22T04:02:22.009Z,1011.58
2017-06-22T04:03:02.896Z,1011.56
2017-06-22T04:03:43.784Z,1011.54
2017-06-22T04:04:24.666Z,1011.57
2017-06-22T04:05:05.553Z,1011.55
2017-06-22T04:05:46.426Z,1011.57
2017-06-22T04:06:27.318Z,1011.54
2017-06-22T04:07:08.236Z,1011.54
2017-06-22T04:07:49.496Z,1011.55
2017-06-22T04:08:30.446Z,1011.52
2017-06-22T04:09:11.270Z,1011.5
2017-06-22T04:09:52.155Z,1011.51
2017-06-22T04:10:33.051Z,1011.52
2017-06-22T04:11:13.966Z,1011.5
2017-06-22T04:11:54.844Z,1011.55
2017-06-22T04:12:35.726Z,1011.47
2017-06-22T04:13:16.632Z,1011.52
2017-06-22T04:13:57.521Z,1011.48
2017-06-22T04:14:38.390Z,1011.49
2017-06-22T04:15:19.276Z,1011.49
2017-06-22T04:16:00.158Z,1011.48
2017-06-22T04:20:56.621Z,1011.55
2017-06-22T04:21:37.505Z,1011.53
2017-06-22T04:22:18.402Z,1011.54
2017-06-22T04:22:59.287Z,1011.53
2017-06-22T04:23:40.177Z,1011.57
2017-06-22T04:24:21.044Z,1011.53
2017-06-22T04:25:01.931Z,1011.52
2017-06-22T04:25:42.822Z,1011.5
2017-06-22T04:26:23.719Z,1011.5
2017-06-22T04:27:04.729Z,1011.49
2017-06-22T04:28:59.345Z,1011.49
2017-06-22T04:29:40.281Z,1011.49
2017-06-22T04:30:21.197Z,1011.51
2017-06-22T04:31:02.346Z,1011.5
2017-06-22T04:31:43.228Z,1011.54
2017-06-22T04:32:24.229Z,1011.52
2017-06-22T04:33:05.121Z,1011.51
2017-06-22T04:33:46.031Z,1011.5
2017-06-22T21:40:10.013Z,1006.25
2017-06-22T21:40:50.894Z,1006.17
2017-06-22T21:41:31.796Z,1006.16
2017-06-22T21:42:12.667Z,1006.1
2017-06-22T21:42:53.554Z,1006.04
2017-06-22T21:43:34.451Z,1006.02
2017-06-22T21:44:15.335Z,1006.02
2017-06-22T21:44:56.238Z,1005.98
2017-06-22T21:45:37.122Z,1005.96
2017-06-22T21:46:18.021Z,1005.98
2017-06-22T21:46:58.914Z,1005.93
2017-06-22T21:47:39.878Z,1005.92
2017-06-22T21:48:21.517Z,1005.95
2017-06-22T21:49:02.399Z,1005.91
2017-06-22T21:49:43.292Z,1005.87
2017-06-22T21:51:57.901Z,1005.84
2017-06-22T21:52:38.790Z,1005.8
2017-06-22T21:53:19.677Z,1005.73
2017-06-22T21:54:00.554Z,1005.71
2017-06-22T21:54:41.483Z,1005.69
2017-06-22T21:55:22.370Z,1005.69
2017-06-22T21:56:03.257Z,1005.63
2017-06-22T21:56:44.183Z,1005.6
2017-06-22T21:57:25.053Z,1005.59
2017-06-22T21:58:05.952Z,1005.56
2017-06-22T21:58:46.834Z,1005.58
2017-06-22T21:59:27.719Z,1005.53
2017-06-22T22:00:08.617Z,1005.49
2017-06-22T22:00:49.514Z,1005.43
2017-06-22T22:01:30.387Z,1005.44
2017-06-22T22:02:11.279Z,1005.46
2017-06-22T22:02:52.184Z,1005.53
2017-06-22T22:03:33.093Z,1005.51
2017-06-22T22:04:13.982Z,1005.52
2017-06-22T22:04:54.869Z,1005.54
2017-06-22T22:05:35.766Z,1005.5
2017-06-22T22:06:16.650Z,1005.52
2017-06-22T22:06:57.535Z,1005.52
2017-06-22T22:07:38.423Z,1005.48
2017-06-22T22:08:19.315Z,1005.46
2017-06-22T22:09:00.214Z,1005.43
2017-06-22T22:09:41.102Z,1005.43
2017-06-22T22:10:21.994Z,1005.39
2017-06-22T22:11:02.907Z,1005.37
2017-06-22T22:11:43.792Z,1005.31
2017-06-22T22:12:24.678Z,1005.32
2017-06-22T22:13:05.571Z,1005.3
2017-06-22T22:13:46.468Z,1005.33
2017-06-22T22:14:27.369Z,1005.26
2017-06-22T22:15:08.266Z,1005.23
2017-06-22T22:15:49.167Z,1005.17
2017-06-22T22:16:30.060Z,1005.11
2017-06-22T22:17:10.953Z,1005.06
2017-06-22T22:17:51.858Z,1005.04
2017-06-22T22:18:32.748Z,1005.08
2017-06-22T22:19:13.629Z,1005.04
2017-06-22T22:19:54.520Z,1005
2017-06-22T22:20:35.419Z,1004.95
2017-06-22T22:21:16.308Z,1004.97
2017-06-22T22:21:57.189Z,1004.93
2017-06-22T22:22:38.094Z,1004.84
2017-06-22T22:24:49.234Z,1004.82
2017-06-22T22:25:30.133Z,1004.8
2017-06-22T22:26:11.013Z,1004.78
2017-06-22T22:26:51.906Z,1004.79
2017-06-22T22:27:32.844Z,1004.77
2017-06-22T22:28:13.676Z,1004.67
2017-06-22T22:28:54.582Z,1004.66
2017-06-22T22:29:35.476Z,1004.62
2017-06-22T22:30:16.354Z,1004.51
2017-06-22T22:30:57.239Z,1004.41
2017-06-22T22:31:38.131Z,1004.26
2017-06-22T22:32:19.025Z,1004.17
2017-06-22T22:32:59.922Z,1004.01
2017-06-22T22:33:40.811Z,1003.88
2017-06-22T22:34:21.703Z,1003.87
2017-06-22T22:36:00.945Z,1004.2
2017-06-22T22:36:41.842Z,1004.19
2017-06-22T22:37:22.721Z,1004.27
2017-06-22T22:38:03.598Z,1004.29
2017-06-22T22:38:44.487Z,1004.31
2017-06-22T22:39:25.387Z,1004.32
2017-06-22T22:40:06.275Z,1004.36
2017-06-22T22:40:47.160Z,1004.34
2017-06-22T22:41:28.082Z,1004.27
2017-06-22T22:42:08.964Z,1004.51
2017-06-22T22:42:49.856Z,1004.74
2017-06-22T22:43:30.746Z,1004.76
2017-06-22T22:44:11.637Z,1004.71
2017-06-22T22:44:52.527Z,1004.67
2017-06-22T22:45:33.423Z,1004.59
2017-06-22T22:46:14.310Z,1004.44
2017-06-22T22:46:55.197Z,1004.53
2017-06-22T22:47:36.094Z,1004.54
2017-06-22T22:48:16.980Z,1004.62
2017-06-22T22:48:57.861Z,1004.69
2017-06-22T22:49:38.763Z,1004.66
2017-06-22T22:50:19.662Z,1004.65
2017-06-22T22:51:00.530Z,1004.57
2017-06-22T22:51:41.422Z,1004.48
2017-06-22T22:52:22.334Z,1004.39
2017-06-22T22:53:03.223Z,1004.27
2017-06-22T22:53:44.126Z,1004.22
2017-06-22T22:54:25.014Z,1004.19
2017-06-22T22:55:05.894Z,1004.2
2017-06-22T22:55:46.802Z,1004.18
2017-06-22T22:56:27.684Z,1004.15
2017-06-22T22:57:08.578Z,1004.17
2017-06-22T22:57:49.480Z,1004.07
2017-06-22T22:58:30.368Z,1004.03
2017-06-22T22:59:11.251Z,1003.93
2017-06-22T22:59:52.154Z,1003.86
2017-06-22T23:00:33.041Z,1003.81
2017-06-22T23:01:13.927Z,1003.8
2017-06-22T23:01:54.832Z,1003.8
2017-06-22T23:02:35.712Z,1003.77
2017-06-22T23:03:16.586Z,1003.7
2017-06-22T23:03:57.477Z,1003.59
2017-06-22T23:04:38.384Z,1003.49
2017-06-22T23:05:19.273Z,1003.38
2017-06-22T23:06:00.204Z,1003.35
2017-06-22T23:06:41.072Z,1003.34
2017-06-22T23:07:21.975Z,1003.4
2017-06-22T23:08:02.866Z,1003.46
2017-06-22T23:08:43.720Z,1003.6
2017-06-22T23:09:24.605Z,1003.64
2017-06-22T23:10:05.504Z,1003.67
2017-06-22T23:10:46.397Z,1003.67
2017-06-22T23:11:27.277Z,1003.6
2017-06-22T23:12:08.183Z,1003.58
2017-06-22T23:12:49.143Z,1003.48
2017-06-22T23:13:30.032Z,1003.31
2017-06-22T23:14:10.916Z,1003.12
2017-06-22T23:14:51.800Z,1002.92
2017-06-22T23:15:32.703Z,1002.89
2017-06-22T23:16:13.587Z,1002.92
2017-06-22T23:16:54.476Z,1002.93
2017-06-22T23:17:35.376Z,1003.01
2017-06-22T23:18:16.260Z,1003.1
2017-06-22T23:18:57.153Z,1003.12
2017-06-22T23:19:38.049Z,1003.15
2017-06-22T23:20:18.930Z,1003.17
2017-06-22T23:20:59.806Z,1003.15
2017-06-22T23:21:40.701Z,1003.18
2017-06-22T23:22:21.592Z,1003.27
2017-06-22T23:23:02.469Z,1003.36
2017-06-22T23:23:43.336Z,1003.39
2017-06-22T23:24:24.247Z,1003.4
2017-06-22T23:25:05.126Z,1003.46
2017-06-22T23:25:46.017Z,1003.52
2017-06-22T23:26:26.906Z,1003.56
2017-06-22T23:27:07.814Z,1003.62
2017-06-22T23:27:48.684Z,1003.62
2017-06-22T23:28:29.577Z,1003.64
2017-06-22T23:29:10.479Z,1003.63
2017-06-22T23:29:51.365Z,1003.62
2017-06-22T23:30:32.263Z,1003.59
2017-06-22T23:31:13.161Z,1003.51
2017-06-22T23:31:54.045Z,1003.48
2017-06-22T23:32:34.936Z,1003.41
2017-06-22T23:33:15.831Z,1003.38
2017-06-22T23:33:56.719Z,1003.35
2017-06-22T23:34:37.614Z,1003.31
2017-06-22T23:35:18.501Z,1003.3
2017-06-22T23:35:59.395Z,1003.32
2017-06-22T23:36:40.296Z,1003.39
2017-06-22T23:37:21.188Z,1003.4
2017-06-22T23:38:02.077Z,1003.44
2017-06-22T23:38:42.969Z,1003.45
2017-06-22T23:39:23.865Z,1003.41
2017-06-22T23:40:04.746Z,1003.37
2017-06-22T23:40:45.643Z,1003.36
2017-06-22T23:41:26.540Z,1003.36
2017-06-22T23:42:07.418Z,1003.33
2017-06-22T23:42:48.321Z,1003.33
2017-06-22T23:43:29.215Z,1003.31
2017-06-22T23:44:10.098Z,1003.29
2017-06-22T23:44:51.016Z,1003.37
2017-06-22T23:45:31.908Z,1003.35
2017-06-22T23:46:12.781Z,1003.36
2017-06-22T23:46:53.672Z,1003.36
2017-06-22T23:47:34.557Z,1003.35
2017-06-22T23:48:15.460Z,1003.34
2017-06-22T23:48:56.376Z,1003.34
2017-06-22T23:49:37.261Z,1003.31
2017-06-22T23:50:18.124Z,1003.33
2017-06-22T23:50:58.992Z,1003.33
2017-06-22T23:51:39.895Z,1003.31
2017-06-22T23:52:20.780Z,1003.27
2017-06-22T23:53:01.666Z,1003.29
2017-06-22T23:53:42.552Z,1003.26
2017-06-22T23:54:23.454Z,1003.22
2017-06-22T23:55:04.325Z,1003.25
2017-06-22T23:55:45.203Z,1003.24
2017-06-22T23:56:26.143Z,1003.24
2017-06-22T23:57:07.012Z,1003.23
2017-06-22T23:57:47.907Z,1003.22
2017-06-22T23:58:28.793Z,1003.22
2017-06-22T23:59:09.674Z,1003.22
2017-06-22T23:59:50.574Z,1003.19
